Time;durP1;ratioP1;P1;durP2;ratioP2;P2;SDS_P1;SDS_P2;PMS_P1;PMS_P2;Temp;Humidity;BMP_temperature;BMP_pressure;BME280_temperature;BME280_humidity;BME280_pressure;Samples;Min_cycle;Max_cycle;Signal;HPM_P1;HPM_P2
2022/01/21 00:01:12;;;;;;;4.10;2.20;;;;;;;-1.91;60.71;99685.00;108118;1271;22551;-80
2022/01/21 00:03:40;;;;;;;4.90;2.90;;;;;;;-1.93;60.60;99692.73;107853;1271;25854;-81
2022/01/21 00:06:08;;;;;;;3.80;2.20;;;;;;;-1.90;60.89;99697.48;106363;1271;25250;-79
2022/01/21 00:08:37;;;;;;;7.40;3.00;;;;;;;-1.89;60.70;99698.38;106289;1271;25400;-78
2022/01/21 00:11:08;;;;;;;9.20;2.90;;;;;;;-1.90;60.51;99701.27;106307;1271;22617;-78
2022/01/21 00:13:36;;;;;;;6.20;2.60;;;;;;;-1.92;60.60;99705.67;106441;1271;24272;-82
2022/01/21 00:19:52;;;;;;;5.40;2.60;;;;;;;-1.98;60.49;99719.83;106273;1271;25242;-81
2022/01/21 00:31:17;;;;;;;6.60;2.70;;;;;;;-2.06;60.74;99737.20;106514;1271;23993;-82
2022/01/21 00:33:44;;;;;;;6.60;2.60;;;;;;;-2.09;60.61;99725.88;106254;1271;209724;-82
2022/01/21 00:36:13;;;;;;;5.80;3.10;;;;;;;-2.12;60.75;99738.58;106241;1271;22781;-81
2022/01/21 00:38:42;;;;;;;5.30;2.20;;;;;;;-2.12;60.69;99743.06;106922;1271;25461;-81
2022/01/21 00:41:10;;;;;;;6.20;2.40;;;;;;;-2.14;60.76;99739.90;106994;1271;24227;-82
2022/01/21 00:43:44;;;;;;;5.40;2.70;;;;;;;-2.14;60.64;99742.14;106921;1271;22894;-82
2022/01/21 00:46:13;;;;;;;5.80;2.60;;;;;;;-2.16;60.82;99741.38;106996;1277;22582;-80
2022/01/21 00:48:40;;;;;;;6.10;2.50;;;;;;;-2.14;60.95;99740.40;107409;1277;25380;-81
2022/01/21 00:51:07;;;;;;;3.20;2.30;;;;;;;-2.15;60.64;99741.23;107596;1277;22577;-81
2022/01/21 00:53:35;;;;;;;4.70;2.20;;;;;;;-2.15;60.69;99738.48;107605;1277;22620;-79
2022/01/21 00:56:02;;;;;;;4.10;2.60;;;;;;;-2.14;60.74;99744.89;107616;1277;22558;-80
2022/01/21 00:58:29;;;;;;;5.30;2.30;;;;;;;-2.19;60.32;99742.46;108192;1276;22578;-79
2022/01/21 01:00:57;;;;;;;3.20;1.90;;;;;;;-2.21;60.32;99737.08;107674;1277;24275;-80
2022/01/21 01:03:24;;;;;;;5.70;2.50;;;;;;;-2.21;60.52;99735.33;107725;1277;22610;-81
2022/01/21 01:05:52;;;;;;;4.20;2.30;;;;;;;-2.20;60.69;99729.87;107875;1277;24456;-82
2022/01/21 01:08:19;;;;;;;10.30;2.60;;;;;;;-2.20;60.46;99732.95;107733;1277;22541;-82
2022/01/21 01:28:01;;;;;;;6.80;2.40;;;;;;;-2.32;59.83;99722.76;106056;1274;22774;-80
2022/01/21 01:30:33;;;;;;;7.70;2.30;;;;;;;-2.36;59.80;99726.92;106073;1274;22777;-81
2022/01/21 01:33:02;;;;;;;5.80;2.20;;;;;;;-2.40;59.98;99733.71;106005;1274;25387;-83
2022/01/21 01:35:32;;;;;;;7.30;2.30;;;;;;;-2.40;60.44;99730.60;106155;1274;22563;-84
2022/01/21 01:41:28;;;;;;;7.80;3.40;;;;;;;-2.40;60.06;99725.60;106254;1271;23965;-79
2022/01/21 01:50:26;;;;;;;6.90;2.90;;;;;;;-2.33;60.02;99719.45;106485;1271;22580;-83
2022/01/21 01:52:53;;;;;;;6.70;2.10;;;;;;;-2.35;60.17;99718.70;106315;1271;22548;-85
2022/01/21 01:55:20;;;;;;;5.00;2.20;;;;;;;-2.35;60.12;99720.40;105704;1280;25299;-84
2022/01/21 01:57:47;;;;;;;5.70;2.20;;;;;;;-2.35;60.11;99730.92;105661;1278;22563;-82
2022/01/21 02:00:16;;;;;;;6.00;2.00;;;;;;;-2.34;59.97;99722.50;105640;1278;25251;-80
2022/01/21 02:02:44;;;;;;;5.00;1.90;;;;;;;-2.32;59.96;99717.05;105901;1278;25828;-81
2022/01/21 02:05:11;;;;;;;8.00;1.90;;;;;;;-2.30;59.72;99716.27;105954;1276;22567;-82
2022/01/21 02:07:40;;;;;;;3.70;2.70;;;;;;;-2.28;59.74;99721.85;105907;1277;22543;-85
2022/01/21 02:10:08;;;;;;;6.90;1.90;;;;;;;-2.26;59.70;99719.15;105812;1276;25456;-84
2022/01/21 02:16:54;;;;;;;;;;;;;;;;;;;;;
2022/01/21 02:22:49;;;;;;;3.60;1.60;;;;;;;-2.24;59.61;99709.56;105402;1281;25329;-82
2022/01/21 02:25:20;;;;;;;3.30;1.50;;;;;;;-2.23;59.57;99701.81;105605;1282;25474;-85
2022/01/21 02:27:59;;;;;;;3.10;1.80;;;;;;;-2.23;59.56;99703.55;105660;1283;22670;-84
2022/01/21 02:30:28;;;;;;;4.20;1.60;;;;;;;-2.22;59.68;99704.95;105627;1278;22566;-83
2022/01/21 02:32:59;;;;;;;7.20;1.90;;;;;;;-2.21;59.25;99698.76;105927;1277;25363;-84
2022/01/21 02:35:27;;;;;;;3.50;1.50;;;;;;;-2.21;59.46;99703.44;106158;1275;25369;-83
2022/01/21 02:37:54;;;;;;;5.00;2.00;;;;;;;-2.22;59.45;99708.74;106019;1275;22705;-84
2022/01/21 02:40:21;;;;;;;2.80;1.50;;;;;;;-2.21;59.64;99705.48;106117;1276;24303;-82
2022/01/21 02:43:01;;;;;;;3.40;1.10;;;;;;;-2.20;59.64;99712.59;105484;1282;22690;-80
2022/01/21 02:45:28;;;;;;;5.00;1.70;;;;;;;-2.24;59.61;99719.38;105813;1281;22548;-82
2022/01/21 02:47:55;;;;;;;3.90;2.20;;;;;;;-2.23;59.82;99723.55;105679;1274;24161;-82
2022/01/21 02:50:22;;;;;;;2.80;1.70;;;;;;;-2.22;59.73;99721.17;106189;1275;23679;-81
2022/01/21 02:52:56;;;;;;;6.20;2.10;;;;;;;-2.21;59.95;99717.04;105854;1279;24260;-84
2022/01/21 02:55:25;;;;;;;4.70;1.70;;;;;;;-2.25;60.01;99709.01;105805;1279;22568;-83
2022/01/21 02:57:53;;;;;;;2.50;1.30;;;;;;;-2.29;60.20;99720.09;105623;1284;25263;-81
2022/01/21 03:00:20;;;;;;;5.50;1.70;;;;;;;-2.31;60.16;99724.87;107619;1277;22838;-82
2022/01/21 03:02:47;;;;;;;6.30;2.00;;;;;;;-2.34;60.25;99722.86;108513;1277;22562;-80
2022/01/21 03:05:16;;;;;;;5.30;2.00;;;;;;;-2.35;60.46;99723.02;108859;1277;22605;-83
2022/01/21 03:07:44;;;;;;;6.40;1.90;;;;;;;-2.34;60.47;99728.23;109114;1277;22693;-80
2022/01/21 03:10:13;;;;;;;3.60;1.90;;;;;;;-2.33;60.53;99727.02;108972;1274;22567;-81
2022/01/21 03:12:42;;;;;;;5.50;1.70;;;;;;;-2.31;60.65;99730.05;108855;1274;22598;-81
2022/01/21 03:15:09;;;;;;;2.60;1.70;;;;;;;-2.30;60.65;99725.23;108233;1271;24091;-82
2022/01/21 03:17:36;;;;;;;3.80;1.60;;;;;;;-2.30;60.74;99722.14;107385;1268;22741;-83
2022/01/21 03:20:04;;;;;;;9.60;2.00;;;;;;;-2.31;60.78;99722.44;106631;1268;24327;-83
2022/01/21 03:22:32;;;;;;;6.40;2.20;;;;;;;-2.33;61.03;99719.95;106503;1268;23198;-85
2022/01/21 03:24:59;;;;;;;4.70;1.70;;;;;;;-2.34;61.07;99724.09;106694;1268;25253;-87
2022/01/21 03:27:26;;;;;;;2.80;1.50;;;;;;;-2.39;61.23;99723.94;106596;1271;24187;-88
2022/01/21 03:29:54;;;;;;;4.80;2.10;;;;;;;-2.41;61.39;99716.09;106814;1268;25371;-87
2022/01/21 03:32:23;;;;;;;3.40;1.80;;;;;;;-2.43;61.63;99718.97;106781;1268;22613;-87
2022/01/21 03:34:51;;;;;;;3.20;2.00;;;;;;;-2.46;61.68;99731.61;106411;1271;22534;-79
2022/01/21 03:37:18;;;;;;;4.70;1.90;;;;;;;-2.50;61.78;99744.59;106315;1268;22537;-80
2022/01/21 03:39:45;;;;;;;5.70;1.80;;;;;;;-2.50;62.15;99739.25;106357;1268;25553;-80
2022/01/21 03:42:12;;;;;;;4.30;1.80;;;;;;;-2.44;62.29;99734.42;106294;1268;22620;-80
2022/01/21 03:44:40;;;;;;;3.90;1.70;;;;;;;-2.38;62.44;99736.86;106292;1268;22659;-84
2022/01/21 03:47:08;;;;;;;3.70;2.00;;;;;;;-2.36;62.21;99740.89;106385;1268;24265;-78
2022/01/21 03:49:40;;;;;;;5.40;1.90;;;;;;;-2.41;62.32;99733.66;106278;1268;22628;-79
2022/01/21 03:52:08;;;;;;;3.10;1.70;;;;;;;-2.44;62.43;99733.76;106441;1268;22562;-79
2022/01/21 03:54:36;;;;;;;4.40;1.70;;;;;;;-2.43;62.54;99732.55;107130;1268;25617;-80
2022/01/21 03:57:04;;;;;;;6.20;1.70;;;;;;;-2.42;62.49;99730.70;106719;1268;26693;-79
2022/01/21 03:59:31;;;;;;;4.70;1.60;;;;;;;-2.42;62.66;99732.60;106036;1274;22494;-81
2022/01/21 04:01:58;;;;;;;5.30;2.00;;;;;;;-2.41;62.81;99734.89;105887;1274;24052;-81
2022/01/21 04:04:26;;;;;;;4.40;1.90;;;;;;;-2.38;62.87;99740.84;106659;1274;22552;-83
2022/01/21 04:06:53;;;;;;;5.60;1.90;;;;;;;-2.38;62.79;99741.69;107155;1274;22498;-84
2022/01/21 04:09:21;;;;;;;3.90;1.90;;;;;;;-2.37;63.04;99749.68;107227;1274;22553;-84
2022/01/21 04:11:49;;;;;;;3.00;1.20;;;;;;;-2.34;62.96;99753.56;107310;1274;22623;-81
2022/01/21 04:14:17;;;;;;;6.10;2.00;;;;;;;-2.32;63.02;99744.83;106890;1277;22544;-83
2022/01/21 04:16:44;;;;;;;5.60;1.70;;;;;;;-2.29;63.13;99748.54;106047;1281;24367;-83
2022/01/21 04:19:11;;;;;;;3.80;1.70;;;;;;;-2.27;63.13;99749.29;105996;1276;22718;-85
2022/01/21 04:21:38;;;;;;;4.30;1.90;;;;;;;-2.27;63.00;99746.55;106024;1276;25489;-88
2022/01/21 04:24:09;;;;;;;3.20;1.60;;;;;;;-2.24;63.12;99743.02;106466;1276;24221;-87
2022/01/21 04:26:40;;;;;;;4.80;1.60;;;;;;;-2.23;63.12;99757.19;106039;1276;25214;-80
2022/01/21 04:29:12;;;;;;;5.00;1.90;;;;;;;-2.19;63.23;99752.84;106071;1276;24253;-78
2022/01/21 04:31:59;;;;;;;2.70;1.60;;;;;;;-2.15;63.29;99756.77;105470;1281;25486;-81
2022/01/21 04:34:32;;;;;;;1.50;1.00;;;;;;;-2.13;63.41;99765.98;105472;1282;22557;-80
2022/01/21 04:37:00;;;;;;;6.80;2.20;;;;;;;-2.12;63.29;99764.27;105692;1283;25263;-84
2022/01/21 04:39:49;;;;;;;4.30;1.70;;;;;;;-2.11;63.25;99771.19;105704;1282;23938;-85
2022/01/21 04:48:57;;;;;;;4.60;1.30;;;;;;;-2.07;63.42;99769.76;105813;1279;23980;-79
2022/01/21 04:51:29;;;;;;;2.50;1.40;;;;;;;-2.06;63.55;99758.41;106041;1276;25376;-80
2022/01/21 04:53:58;;;;;;;7.00;1.90;;;;;;;-2.07;63.47;99768.23;105897;1277;22511;-77
2022/01/21 04:56:28;;;;;;;3.90;1.80;;;;;;;-2.06;63.63;99769.61;106044;1277;24062;-83
2022/01/21 04:58:56;;;;;;;5.00;1.70;;;;;;;-2.05;63.72;99769.52;106083;1279;23478;-82
2022/01/21 05:01:25;;;;;;;8.60;2.40;;;;;;;-2.04;63.88;99769.55;106263;1280;25521;-81
2022/01/21 05:03:54;;;;;;;2.10;1.60;;;;;;;-2.04;64.17;99770.56;105945;1280;22757;-81
2022/01/21 05:06:22;;;;;;;2.60;1.60;;;;;;;-2.05;64.31;99779.86;106286;1280;22569;-82
2022/01/21 05:08:54;;;;;;;2.50;1.50;;;;;;;-2.04;64.33;99776.60;106056;1275;26497;-81
2022/01/21 05:11:23;;;;;;;6.50;2.20;;;;;;;-1.98;64.56;99780.77;106165;1274;24247;-78
2022/01/21 05:17:04;;;;;;;4.10;1.90;;;;;;;-1.89;64.42;99782.27;106066;1274;25435;-78
2022/01/21 05:19:32;;;;;;;5.80;2.00;;;;;;;-1.89;64.41;99792.63;106295;1271;22589;-81
2022/01/21 05:22:21;;;;;;;4.70;1.90;;;;;;;-1.88;64.46;99783.31;106674;1268;25285;-77
2022/01/21 05:24:51;;;;;;;3.30;2.00;;;;;;;-1.90;64.54;99784.30;106569;1271;25603;-82
2022/01/21 05:27:19;;;;;;;5.10;2.10;;;;;;;-1.89;64.61;99790.71;106582;1271;22697;-84
2022/01/21 05:29:50;;;;;;;6.80;2.50;;;;;;;-1.88;64.48;99786.94;106670;1271;22537;-86
2022/01/21 05:32:22;;;;;;;3.00;1.80;;;;;;;-1.88;64.50;99796.61;106516;1271;25305;-81
2022/01/21 05:35:03;;;;;;;7.00;2.50;;;;;;;-1.88;64.62;99794.20;106589;1271;25242;-80
2022/01/21 05:37:53;;;;;;;3.20;2.10;;;;;;;-1.86;64.78;99795.30;106370;1268;22582;-83
2022/01/21 05:40:24;;;;;;;5.30;1.60;;;;;;;-1.84;64.84;99788.45;106607;1268;22541;-82
2022/01/21 05:43:09;;;;;;;6.10;1.90;;;;;;;-1.82;64.89;99803.70;106613;1271;25210;-82
2022/01/21 05:48:37;;;;;;;2.90;1.90;;;;;;;-1.81;64.85;99808.23;106370;1274;23965;-79
2022/01/21 05:51:23;;;;;;;4.40;2.30;;;;;;;-1.80;64.88;99809.45;106076;1274;22536;-83
2022/01/21 05:54:13;;;;;;;7.70;2.40;;;;;;;-1.81;64.83;99807.88;106070;1275;25236;-85
2022/01/21 05:57:07;;;;;;;5.00;2.10;;;;;;;-1.81;64.87;99802.17;105870;1279;24217;-86
2022/01/21 05:59:39;;;;;;;8.70;2.20;;;;;;;-1.83;64.98;99814.17;105732;1279;25439;-87
2022/01/21 06:02:08;;;;;;;3.50;2.40;;;;;;;-1.83;64.79;99813.15;105590;1280;22578;-86
2022/01/21 06:04:38;;;;;;;3.90;2.00;;;;;;;-1.83;64.99;99814.04;105372;1285;22915;-87
2022/01/21 06:07:10;;;;;;;5.60;2.40;;;;;;;-1.84;64.89;99814.52;105483;1281;25625;-88
2022/01/21 06:09:37;;;;;;;4.80;1.70;;;;;;;-1.85;65.03;99826.36;105518;1281;22729;-86
2022/01/21 06:12:06;;;;;;;6.10;2.30;;;;;;;-1.86;65.19;99823.60;105775;1280;24235;-86
2022/01/21 06:14:36;;;;;;;3.80;1.70;;;;;;;-1.84;65.23;99825.05;105600;1281;22634;-88
2022/01/21 06:17:05;;;;;;;4.00;1.90;;;;;;;-1.82;65.28;99822.16;105809;1281;25366;-86
2022/01/21 06:19:34;;;;;;;7.80;2.70;;;;;;;-1.81;65.41;99816.86;105323;1284;26525;-87
2022/01/21 06:22:02;;;;;;;5.40;2.20;;;;;;;-1.77;65.27;99822.34;105482;1277;22576;-86
2022/01/21 06:24:33;;;;;;;3.00;2.70;;;;;;;-1.73;65.36;99824.68;106027;1276;24303;-86
2022/01/21 06:27:03;;;;;;;3.90;2.20;;;;;;;-1.72;65.25;99827.50;106339;1277;24313;-86
2022/01/21 06:29:31;;;;;;;3.00;2.30;;;;;;;-1.75;65.41;99822.56;106307;1276;25368;-87
2022/01/21 06:32:00;;;;;;;6.10;2.60;;;;;;;-1.77;65.45;99816.98;106185;1277;26501;-87
2022/01/21 06:34:28;;;;;;;5.20;2.80;;;;;;;-1.77;65.56;99824.41;106511;1276;26753;-87
2022/01/21 06:37:01;;;;;;;7.10;2.40;;;;;;;-1.76;65.67;99833.92;106767;1276;26514;-89
2022/01/21 06:39:35;;;;;;;4.20;2.10;;;;;;;-1.77;65.51;99840.48;106837;1279;24239;-86
2022/01/21 06:42:02;;;;;;;7.10;2.20;;;;;;;-1.79;65.86;99835.23;106391;1282;26518;-87
2022/01/21 06:44:36;;;;;;;5.90;2.00;;;;;;;-1.74;66.03;99840.18;106332;1276;26524;-87
2022/01/21 06:47:06;;;;;;;3.20;1.70;;;;;;;-1.73;66.01;99843.67;106270;1282;23859;-87
2022/01/21 06:49:34;;;;;;;6.80;2.30;;;;;;;-1.68;66.08;99839.19;106029;1282;24647;-85
2022/01/21 06:52:02;;;;;;;6.50;2.20;;;;;;;-1.64;66.06;99848.13;105870;1284;25842;-87
2022/01/21 06:54:32;;;;;;;5.90;2.50;;;;;;;-1.63;65.99;99856.25;105822;1282;26068;-87
2022/01/21 06:56:59;;;;;;;7.30;2.40;;;;;;;-1.64;65.95;99858.14;105755;1279;22573;-87
2022/01/21 06:59:26;;;;;;;6.30;2.10;;;;;;;-1.64;66.06;99861.95;106290;1280;22859;-87
2022/01/21 07:01:53;;;;;;;3.50;1.70;;;;;;;-1.67;66.03;99863.05;106028;1279;22563;-88
2022/01/21 07:04:22;;;;;;;4.40;1.80;;;;;;;-1.65;65.92;99866.21;106041;1283;23952;-88
2022/01/21 07:06:49;;;;;;;6.00;1.90;;;;;;;-1.64;65.97;99875.06;105902;1283;22614;-90
2022/01/21 07:09:20;;;;;;;4.00;2.10;;;;;;;-1.64;65.90;99877.48;106612;1282;22562;-88
2022/01/21 07:11:47;;;;;;;3.90;1.60;;;;;;;-1.63;66.06;99873.88;106826;1277;24017;-90
2022/01/21 07:14:15;;;;;;;5.00;2.30;;;;;;;-1.62;65.88;99880.66;107370;1277;26581;-90
2022/01/21 07:16:43;;;;;;;4.70;2.30;;;;;;;-1.64;66.08;99886.64;107893;1274;23925;-81
2022/01/21 07:19:10;;;;;;;7.90;2.90;;;;;;;-1.59;65.95;99890.74;107356;1274;22537;-86
2022/01/21 07:21:38;;;;;;;3.70;2.20;;;;;;;-1.59;65.84;99896.45;107925;1271;22708;-87
2022/01/21 07:24:25;;;;;;;3.90;2.10;;;;;;;-1.60;65.88;99890.38;108041;1271;22560;-87
2022/01/21 07:26:53;;;;;;;3.50;1.90;;;;;;;-1.57;65.99;99889.06;107097;1271;23318;-79
2022/01/21 07:29:20;;;;;;;3.90;2.40;;;;;;;-1.58;65.70;99886.80;106958;1271;22701;-80
2022/01/21 07:31:51;;;;;;;4.20;2.40;;;;;;;-1.57;65.81;99886.64;107695;1271;22943;-82
2022/01/21 07:34:19;;;;;;;4.20;2.20;;;;;;;-1.54;65.67;99891.77;108845;1271;23890;-87
2022/01/21 07:36:47;;;;;;;4.80;2.50;;;;;;;-1.53;65.52;99897.52;108427;1270;24256;-88
2022/01/21 07:39:14;;;;;;;4.80;2.10;;;;;;;-1.55;65.46;99891.23;108334;1271;25367;-82
2022/01/21 07:41:41;;;;;;;6.30;2.10;;;;;;;-1.51;65.37;99894.98;107031;1271;22722;-83
2022/01/21 07:44:09;;;;;;;3.80;2.10;;;;;;;-1.48;65.25;99898.89;106874;1274;26615;-84
2022/01/21 07:46:36;;;;;;;3.00;1.90;;;;;;;-1.42;65.15;99897.67;106828;1271;22544;-85
2022/01/21 07:49:03;;;;;;;5.60;2.00;;;;;;;-1.39;64.84;99900.02;106739;1271;25396;-83
2022/01/21 07:51:30;;;;;;;6.20;2.30;;;;;;;-1.36;64.50;99890.77;106878;1271;23716;-85
2022/01/21 07:53:57;;;;;;;2.90;1.60;;;;;;;-1.31;64.33;99904.39;108225;1271;23753;-85
2022/01/21 07:56:25;;;;;;;6.70;2.30;;;;;;;-1.29;64.26;99901.34;108088;1271;22533;-85
2022/01/21 07:58:53;;;;;;;4.40;2.10;;;;;;;-1.28;63.97;99896.56;107641;1271;22551;-84
2022/01/21 08:01:20;;;;;;;6.30;2.30;;;;;;;-1.27;63.78;99905.03;108334;1271;23922;-83
2022/01/21 08:03:47;;;;;;;6.20;2.20;;;;;;;-1.23;63.84;99900.83;108444;1270;22682;-84
2022/01/21 08:06:14;;;;;;;5.60;2.20;;;;;;;-1.19;63.41;99911.35;108566;1271;22548;-83
2022/01/21 08:08:41;;;;;;;3.80;2.30;;;;;;;-1.14;63.07;99907.16;108655;1271;22615;-83
2022/01/21 08:11:09;;;;;;;3.40;1.90;;;;;;;-1.11;63.15;99913.84;108972;1271;22583;-85
2022/01/21 08:13:36;;;;;;;5.20;2.10;;;;;;;-1.03;63.20;99912.34;107828;1271;22554;-85
2022/01/21 08:16:03;;;;;;;4.80;2.70;;;;;;;-0.98;62.77;99903.85;107440;1271;23929;-86
2022/01/21 08:18:31;;;;;;;3.90;2.30;;;;;;;-0.93;62.53;99910.55;107388;1271;25935;-84
2022/01/21 08:20:59;;;;;;;6.60;2.10;;;;;;;-0.85;62.46;99907.52;106687;1273;25297;-80
2022/01/21 08:23:26;;;;;;;4.10;2.00;;;;;;;-0.75;62.40;99913.52;106058;1271;22531;-84
2022/01/21 08:25:53;;;;;;;4.80;2.30;;;;;;;-0.64;62.19;99916.41;106138;1271;25241;-83
2022/01/21 08:28:20;;;;;;;3.20;2.00;;;;;;;-0.61;61.89;99912.35;106248;1271;22570;-83
2022/01/21 08:30:48;;;;;;;3.60;1.80;;;;;;;-0.59;61.66;99918.11;106275;1271;23500;-84
2022/01/21 08:33:35;;;;;;;5.60;2.30;;;;;;;-0.57;61.32;99915.23;107003;1276;22579;-90
2022/01/21 08:36:04;;;;;;;4.40;1.80;;;;;;;-0.58;61.08;99920.90;108583;1277;22617;-88
2022/01/21 08:38:38;;;;;;;6.00;1.90;;;;;;;-0.55;61.18;99924.10;108380;1278;22752;-89
2022/01/21 08:41:06;;;;;;;2.80;1.40;;;;;;;-0.49;61.33;99926.70;107389;1279;22537;-88
2022/01/21 08:43:33;;;;;;;5.80;2.20;;;;;;;-0.48;61.14;99927.92;106185;1282;24365;-90
2022/01/21 08:46:01;;;;;;;3.00;1.80;;;;;;;-0.43;60.87;99933.81;106274;1283;22597;-86
2022/01/21 08:48:31;;;;;;;3.70;1.70;;;;;;;-0.41;60.78;99936.80;106318;1282;22605;-87
2022/01/21 08:51:01;;;;;;;3.40;1.60;;;;;;;-0.39;60.52;99939.62;106139;1277;22673;-90
2022/01/21 08:53:36;;;;;;;3.80;2.30;;;;;;;-0.40;60.40;99949.61;106769;1279;22656;-79
2022/01/21 08:56:10;;;;;;;5.40;1.90;;;;;;;-0.40;60.69;99955.33;107000;1276;22577;-85
2022/01/21 08:58:40;;;;;;;4.50;2.00;;;;;;;-0.40;60.70;99952.22;106781;1276;24190;-80
2022/01/21 09:01:12;;;;;;;5.00;2.40;;;;;;;-0.37;60.76;99960.08;106453;1272;25852;-84
2022/01/21 09:03:41;;;;;;;4.60;2.10;;;;;;;-0.35;60.70;99959.80;107445;1271;22592;-87
2022/01/21 09:06:08;;;;;;;5.50;2.40;;;;;;;-0.33;60.66;99969.52;107708;1271;22685;-86
2022/01/21 09:08:38;;;;;;;4.60;2.10;;;;;;;-0.34;60.25;99975.39;106846;1271;23856;-86
2022/01/21 09:11:05;;;;;;;2.60;1.70;;;;;;;-0.35;60.19;99963.25;106790;1273;25480;-86
2022/01/21 09:13:39;;;;;;;7.00;1.70;;;;;;;-0.37;60.14;99966.30;107095;1273;22586;-87
2022/01/21 09:16:10;;;;;;;6.30;2.60;;;;;;;-0.39;60.21;99976.47;107060;1272;22570;-86
2022/01/21 09:18:50;;;;;;;5.50;2.10;;;;;;;-0.42;60.29;99977.59;107090;1272;22563;-87
2022/01/21 09:21:31;;;;;;;3.90;2.10;;;;;;;-0.42;60.46;99972.75;107813;1270;22590;-87
2022/01/21 09:24:01;;;;;;;5.30;2.10;;;;;;;-0.42;60.62;99974.82;109130;1271;24524;-86
2022/01/21 09:26:28;;;;;;;6.30;2.10;;;;;;;-0.42;60.53;99975.69;109204;1271;22579;-86
2022/01/21 09:28:57;;;;;;;3.50;2.00;;;;;;;-0.47;60.33;99966.69;108449;1271;24210;-85
2022/01/21 09:31:25;;;;;;;6.90;2.40;;;;;;;-0.48;60.59;99977.58;108636;1271;24215;-85
2022/01/21 09:34:13;;;;;;;3.30;1.60;;;;;;;-0.47;60.78;99977.95;109250;1269;22528;-85
2022/01/21 09:36:42;;;;;;;6.20;2.80;;;;;;;-0.45;60.87;99969.88;108752;1271;25276;-86
2022/01/21 09:39:12;;;;;;;6.20;2.90;;;;;;;-0.43;60.63;99977.91;108458;1271;25632;-85
2022/01/21 09:41:42;;;;;;;4.40;2.50;;;;;;;-0.45;60.37;99965.71;108130;1271;25363;-86
2022/01/21 09:44:20;;;;;;;7.80;2.30;;;;;;;-0.44;60.55;99976.98;108247;1271;24222;-85
2022/01/21 09:46:50;;;;;;;6.90;2.50;;;;;;;-0.43;60.69;99982.58;107944;1271;23397;-87
2022/01/21 09:51:50;;;;;;;3.10;1.90;;;;;;;-0.43;60.41;99968.73;107881;1271;22523;-86
2022/01/21 09:54:17;;;;;;;5.30;2.90;;;;;;;-0.44;60.19;99965.25;108316;1271;25393;-86
2022/01/21 09:56:47;;;;;;;4.80;2.20;;;;;;;-0.45;60.22;99978.86;107628;1272;22635;-86
2022/01/21 09:59:20;;;;;;;4.70;1.90;;;;;;;-0.41;60.53;99971.72;107695;1271;22551;-87
2022/01/21 10:01:50;;;;;;;6.40;2.10;;;;;;;-0.37;60.42;99969.08;106908;1271;25328;-86
2022/01/21 10:04:19;;;;;;;3.80;2.30;;;;;;;-0.35;59.95;99955.11;106181;1276;25259;-86
2022/01/21 10:06:48;;;;;;;4.70;2.30;;;;;;;-0.38;60.18;99939.98;106374;1276;22841;-86
2022/01/21 10:09:21;;;;;;;5.80;2.40;;;;;;;-0.36;60.05;99944.20;107038;1276;25381;-85
2022/01/21 10:11:51;;;;;;;4.70;1.80;;;;;;;-0.10;59.62;99944.20;107693;1277;25409;-86
2022/01/21 10:14:29;;;;;;;5.60;2.10;;;;;;;0.17;58.92;99939.89;106572;1282;24293;-87
2022/01/21 10:17:00;;;;;;;4.90;2.00;;;;;;;0.47;59.13;99946.69;106308;1285;23210;-87
2022/01/21 10:19:32;;;;;;;5.80;2.40;;;;;;;0.76;58.25;99949.48;106117;1288;22602;-87
2022/01/21 10:22:10;;;;;;;5.60;1.70;;;;;;;0.93;56.92;99940.16;106156;1285;22550;-87
2022/01/21 10:25:01;;;;;;;3.90;2.20;;;;;;;1.04;56.20;99934.67;106593;1282;22646;-85
2022/01/21 10:27:38;;;;;;;5.50;2.00;;;;;;;1.16;55.99;99933.37;106627;1281;22673;-84
2022/01/21 10:30:28;;;;;;;5.30;2.10;;;;;;;1.29;55.69;99933.47;105669;1287;22580;-87
2022/01/21 10:32:55;;;;;;;7.20;2.10;;;;;;;1.44;55.22;99927.89;106390;1279;22638;-88
2022/01/21 10:35:35;;;;;;;2.90;1.50;;;;;;;1.53;54.87;99932.59;106842;1277;22627;-86
2022/01/21 10:38:28;;;;;;;6.80;2.10;;;;;;;1.65;54.09;99927.61;107016;1277;22601;-87
2022/01/21 10:41:22;;;;;;;3.50;1.90;;;;;;;1.66;53.65;99928.85;106750;1276;24229;-86
2022/01/21 10:44:31;;;;;;;3.10;1.50;;;;;;;1.71;54.13;99925.30;106730;1277;25254;-87
2022/01/21 10:47:07;;;;;;;7.40;2.20;;;;;;;1.92;53.68;99924.48;107022;1276;22798;-87
2022/01/21 10:49:39;;;;;;;5.10;2.10;;;;;;;2.03;53.31;99926.94;106763;1271;24246;-87
2022/01/21 10:52:11;;;;;;;4.80;2.70;;;;;;;2.10;52.58;99932.11;106615;1274;22631;-88
2022/01/21 10:54:44;;;;;;;7.10;2.80;;;;;;;2.03;52.50;99925.20;106875;1274;24314;-87
2022/01/21 10:57:20;;;;;;;4.40;2.30;;;;;;;2.15;52.83;99925.58;106867;1272;25242;-88
2022/01/21 11:00:14;;;;;;;6.20;2.50;;;;;;;2.19;52.42;99920.80;106811;1271;22569;-88
2022/01/21 11:02:48;;;;;;;3.80;2.40;;;;;;;2.17;52.57;99926.83;106518;1278;25292;-88
2022/01/21 11:05:47;;;;;;;4.10;2.20;;;;;;;2.13;52.21;99912.17;105951;1278;23936;-88
2022/01/21 11:08:15;;;;;;;5.40;2.70;;;;;;;2.22;52.50;99927.27;105423;1284;23294;-88
2022/01/21 11:10:49;;;;;;;4.70;2.80;;;;;;;2.32;51.87;99938.02;105561;1284;24517;-88
2022/01/21 11:13:18;;;;;;;4.40;2.10;;;;;;;2.24;51.74;99937.04;105041;1288;22709;-88
2022/01/21 11:15:53;;;;;;;6.60;2.40;;;;;;;2.14;52.06;99938.24;105119;1288;22619;-88
2022/01/21 11:18:52;;;;;;;5.80;2.30;;;;;;;1.92;52.06;99934.20;105687;1288;22632;-88
2022/01/21 11:21:19;;;;;;;5.20;2.70;;;;;;;1.86;52.22;99928.88;105275;1288;22582;-82
2022/01/21 11:24:06;;;;;;;6.10;2.60;;;;;;;1.92;51.77;99940.27;105314;1288;22669;-87
2022/01/21 11:26:33;;;;;;;4.40;2.30;;;;;;;1.71;52.02;99941.28;104949;1287;26548;-86
2022/01/21 11:29:03;;;;;;;4.10;2.20;;;;;;;1.57;52.66;99937.35;105196;1288;22651;-89
2022/01/21 11:31:31;;;;;;;4.50;2.50;;;;;;;1.46;52.60;99937.48;105130;1287;26746;-85
2022/01/21 11:34:11;;;;;;;4.40;2.30;;;;;;;1.45;52.68;99938.30;105575;1287;22751;-86
2022/01/21 11:36:42;;;;;;;7.90;2.90;;;;;;;1.58;53.12;99943.27;105077;1287;24334;-87
2022/01/21 11:39:10;;;;;;;8.10;2.60;;;;;;;1.73;52.15;99927.76;105633;1278;22503;-87
2022/01/21 11:41:40;;;;;;;3.10;2.10;;;;;;;1.74;52.37;99943.77;106276;1279;24487;-88
2022/01/21 11:44:11;;;;;;;4.40;2.40;;;;;;;1.65;52.24;99941.85;106368;1280;22573;-87
2022/01/21 11:46:47;;;;;;;5.50;3.80;;;;;;;1.54;52.36;99944.23;107016;1271;26534;-87
2022/01/21 11:49:20;;;;;;;5.10;2.70;;;;;;;1.49;52.71;99940.83;107040;1272;23933;-86
2022/01/21 11:51:48;;;;;;;7.40;3.40;;;;;;;1.32;52.80;99949.68;106879;1274;22560;-86
2022/01/21 11:54:24;;;;;;;5.50;2.80;;;;;;;1.12;53.32;99947.68;106923;1271;24005;-87
2022/01/21 11:57:02;;;;;;;8.90;3.00;;;;;;;1.09;54.07;99947.27;106661;1271;25381;-85
2022/01/21 11:59:59;;;;;;;5.20;2.70;;;;;;;1.07;54.23;99943.40;106904;1271;22556;-88
2022/01/21 12:02:28;;;;;;;7.60;3.30;;;;;;;0.93;54.16;99954.55;106173;1280;22650;-85
2022/01/21 12:04:57;;;;;;;3.80;2.30;;;;;;;0.84;54.80;99956.41;106025;1283;25343;-87
2022/01/21 12:07:44;;;;;;;4.90;2.30;;;;;;;0.69;54.46;99954.16;105761;1283;22564;-87
2022/01/21 12:10:11;;;;;;;5.20;2.70;;;;;;;0.47;54.89;99959.88;106400;1281;22571;-87
2022/01/21 12:13:22;;;;;;;2.90;2.40;;;;;;;0.36;55.18;99952.15;105872;1281;22544;-88
2022/01/21 12:16:06;;;;;;;4.40;2.20;;;;;;;0.25;55.56;99959.14;105292;1286;23149;-86
2022/01/21 12:19:11;;;;;;;4.80;2.40;;;;;;;0.15;55.96;99967.20;106260;1287;22716;-86
2022/01/21 12:21:43;;;;;;;13.00;2.80;;;;;;;0.10;56.23;99967.06;106289;1287;22571;-85
2022/01/21 12:24:11;;;;;;;6.90;2.50;;;;;;;0.07;56.40;99957.98;106710;1284;22576;-86
2022/01/21 12:26:58;;;;;;;3.70;2.20;;;;;;;0.07;56.52;99967.84;106024;1284;22767;-86
2022/01/21 12:29:28;;;;;;;3.90;1.90;;;;;;;0.07;56.50;99967.31;105433;1290;22921;-87
2022/01/21 12:32:05;;;;;;;4.40;2.00;;;;;;;0.03;56.45;99976.92;105389;1291;25333;-88
2022/01/21 12:34:58;;;;;;;4.90;1.90;;;;;;;-0.01;56.62;99975.27;104964;1293;611836;-88
2022/01/21 12:40:36;;;;;;;11.50;2.50;;;;;;;-0.08;56.73;99969.02;106257;1288;22839;-86
2022/01/21 12:43:36;;;;;;;5.50;1.90;;;;;;;-0.10;56.84;99969.64;105751;1287;22654;-86
2022/01/21 12:46:08;;;;;;;3.40;1.80;;;;;;;-0.10;56.94;99976.05;105344;1288;22959;-88
2022/01/21 12:48:36;;;;;;;6.20;2.50;;;;;;;-0.10;57.03;99969.65;105851;1287;22630;-87
2022/01/21 12:57:21;;;;;;;4.00;2.20;;;;;;;-0.16;57.19;99978.13;106248;1284;25283;-87
2022/01/21 12:59:56;;;;;;;5.70;2.30;;;;;;;-0.15;57.03;99978.00;106182;1284;22675;-87